createdAt,value
2018-08-07T00:00:37.826Z,99113.00
2018-08-07T00:02:42.328Z,99112.00
2018-08-07T00:04:46.878Z,99109.00
2018-08-07T00:06:51.635Z,99112.00
2018-08-07T00:08:56.141Z,99105.00
2018-08-07T00:11:00.619Z,99107.00
2018-08-07T00:13:05.181Z,99104.00
2018-08-07T00:15:11.816Z,99104.00
2018-08-07T00:17:16.266Z,99109.00
2018-08-07T00:19:20.826Z,99100.00
2018-08-07T00:21:25.327Z,99095.00
2018-08-07T00:23:30.060Z,99092.00
2018-08-07T00:25:34.562Z,99089.00
2018-08-07T00:27:39.630Z,99088.00
2018-08-07T00:29:44.142Z,99081.00
2018-08-07T00:31:48.679Z,99085.00
2018-08-07T00:33:53.150Z,99088.00
2018-08-07T00:35:57.662Z,99083.00
2018-08-07T00:38:02.177Z,99076.00
2018-08-07T00:40:09.647Z,99080.00
2018-08-07T00:42:14.824Z,99073.00
2018-08-07T00:44:19.333Z,99072.00
2018-08-07T00:46:23.507Z,99066.00
2018-08-07T00:48:28.003Z,99059.00
2018-08-07T00:50:32.245Z,99067.00
2018-08-07T00:52:36.734Z,99062.00
2018-08-07T00:54:41.270Z,99056.00
2018-08-07T00:56:45.788Z,99062.00
2018-08-07T00:58:50.256Z,99060.00
2018-08-07T01:00:57.593Z,99056.00
2018-08-07T01:03:04.919Z,99053.00
2018-08-07T01:05:14.082Z,99044.00
2018-08-07T01:07:22.357Z,99052.00
2018-08-07T01:09:30.617Z,99058.00
2018-08-07T01:11:38.056Z,99042.00
2018-08-07T01:13:44.621Z,99042.00
2018-08-07T01:15:52.270Z,99048.00
2018-08-07T01:18:00.629Z,99056.00
2018-08-07T01:20:12.374Z,99053.00
2018-08-07T01:22:20.871Z,99048.00
2018-08-07T01:24:27.281Z,99040.00
2018-08-07T01:26:33.014Z,99044.00
2018-08-07T01:28:40.511Z,99036.00
2018-08-07T01:30:47.423Z,99042.00
2018-08-07T01:32:55.458Z,99044.00
2018-08-07T01:35:03.034Z,99033.00
2018-08-07T01:37:09.521Z,99041.00
2018-08-07T01:39:15.983Z,99040.00
2018-08-07T01:41:23.504Z,99033.00
2018-08-07T01:43:28.106Z,99033.00
2018-08-07T01:45:34.461Z,99035.00
2018-08-07T01:47:42.283Z,99027.00
2018-08-07T01:49:49.521Z,99032.00
2018-08-07T01:51:54.046Z,99025.00
2018-08-07T01:54:01.413Z,99025.00
2018-08-07T01:56:08.586Z,99019.00
2018-08-07T01:58:15.800Z,99026.00
2018-08-07T02:00:20.719Z,99026.00
2018-08-07T02:02:25.197Z,99022.00
2018-08-07T02:04:29.658Z,99022.00
2018-08-07T02:06:34.482Z,99031.00
2018-08-07T02:08:42.866Z,99034.00
2018-08-07T02:10:50.439Z,99031.00
2018-08-07T02:12:55.222Z,99032.00
2018-08-07T02:15:01.802Z,99025.00
2018-08-07T02:17:08.948Z,99026.00
2018-08-07T02:19:16.307Z,99020.00
2018-08-07T02:21:23.436Z,99023.00
2018-08-07T02:23:31.803Z,99029.00
2018-08-07T02:25:36.399Z,99025.00
2018-08-07T02:27:41.775Z,99027.00
2018-08-07T02:29:47.030Z,99019.00
2018-08-07T02:31:51.466Z,99019.00
2018-08-07T02:33:56.109Z,99018.00
2018-08-07T02:36:00.847Z,99018.00
2018-08-07T02:38:05.381Z,99010.00
2018-08-07T02:40:11.729Z,99016.00
2018-08-07T02:42:16.302Z,99008.00
2018-08-07T02:44:20.738Z,99014.00
2018-08-07T02:46:25.267Z,99011.00
2018-08-07T02:48:29.759Z,99007.00
2018-08-07T02:50:34.522Z,99002.00
2018-08-07T02:52:39.062Z,99003.00
2018-08-07T02:54:43.561Z,99004.00
2018-08-07T02:56:48.014Z,99002.00
2018-08-07T02:58:52.461Z,99009.00
2018-08-07T03:00:57.025Z,98998.00
2018-08-07T03:03:01.704Z,98993.00
2018-08-07T03:05:08.153Z,99000.00
2018-08-07T03:07:12.662Z,98991.00
2018-08-07T03:09:17.155Z,99003.00
2018-08-07T03:11:21.603Z,99004.00
2018-08-07T03:13:26.958Z,99001.00
2018-08-07T03:15:31.456Z,98999.00
2018-08-07T03:17:36.032Z,99001.00
2018-08-07T03:19:40.507Z,99004.00
2018-08-07T03:21:44.963Z,99010.00
2018-08-07T03:23:49.396Z,99004.00
2018-08-07T03:25:53.891Z,99006.00
2018-08-07T03:27:58.458Z,99004.00
2018-08-07T03:30:02.963Z,99002.00
2018-08-07T03:32:07.579Z,99003.00
2018-08-07T03:34:12.089Z,99004.00
2018-08-07T03:36:16.525Z,99004.00
2018-08-07T03:38:21.042Z,98997.00
2018-08-07T03:40:25.532Z,99011.00
2018-08-07T03:42:30.014Z,99003.00
2018-08-07T03:44:34.504Z,99012.00
2018-08-07T03:46:39.252Z,99009.00
2018-08-07T03:48:43.770Z,99005.00
2018-08-07T03:50:48.234Z,99006.00
2018-08-07T03:52:52.708Z,99002.00
2018-08-07T03:54:57.110Z,99009.00
2018-08-07T03:57:01.610Z,99007.00
2018-08-07T03:59:06.156Z,99004.00
2018-08-07T04:01:10.606Z,99007.00
2018-08-07T04:03:17.721Z,99004.00
2018-08-07T04:05:24.981Z,99003.00
2018-08-07T04:07:31.210Z,99003.00
2018-08-07T04:09:39.168Z,99012.00
2018-08-07T04:11:46.370Z,99013.00
2018-08-07T04:13:54.350Z,99011.00
2018-08-07T04:16:00.794Z,99010.00
2018-08-07T04:18:08.485Z,99013.00
2018-08-07T04:20:18.178Z,99017.00
2018-08-07T04:22:25.050Z,99013.00
2018-08-07T04:24:31.861Z,99014.00
2018-08-07T04:26:39.332Z,99015.00
2018-08-07T04:28:45.881Z,99014.00
2018-08-07T04:30:52.224Z,99021.00
2018-08-07T04:33:00.205Z,99023.00
2018-08-07T04:35:08.437Z,99028.00
2018-08-07T04:37:16.723Z,99016.00
2018-08-07T04:39:24.338Z,99018.00
2018-08-07T04:41:31.071Z,99025.00
2018-08-07T04:43:39.332Z,99019.00
2018-08-07T04:45:45.897Z,99020.00
2018-08-07T04:47:52.161Z,99022.00
2018-08-07T04:50:00.467Z,99021.00
2018-08-07T04:52:06.922Z,99019.00
2018-08-07T04:54:15.889Z,99025.00
2018-08-07T04:56:22.490Z,99021.00
2018-08-07T04:58:30.588Z,99026.00
2018-08-07T05:00:36.857Z,99020.00
2018-08-07T05:02:44.430Z,99020.00
2018-08-07T05:04:50.241Z,99027.00
2018-08-07T05:06:56.757Z,99023.00
2018-08-07T05:09:01.286Z,99025.00
2018-08-07T05:11:05.719Z,99025.00
2018-08-07T05:13:10.305Z,99026.00
2018-08-07T05:15:15.486Z,99034.00
2018-08-07T05:17:20.015Z,99036.00
2018-08-07T05:19:24.625Z,99029.00
2018-08-07T05:21:29.078Z,99036.00
2018-08-07T05:23:33.598Z,99033.00
2018-08-07T05:25:38.079Z,99036.00
2018-08-07T05:27:42.581Z,99035.00
2018-08-07T05:29:47.293Z,99030.00
2018-08-07T05:31:55.931Z,99032.00
2018-08-07T05:34:00.994Z,99035.00
2018-08-07T05:36:05.519Z,99030.00
2018-08-07T05:38:09.954Z,99027.00
2018-08-07T05:40:14.542Z,99028.00
2018-08-07T05:42:19.132Z,99036.00
2018-08-07T05:44:23.643Z,99026.00
2018-08-07T05:46:28.110Z,99031.00
2018-08-07T05:48:33.158Z,99031.00
2018-08-07T05:50:37.930Z,99027.00
2018-08-07T05:52:42.287Z,99023.00
2018-08-07T05:54:46.790Z,99022.00
2018-08-07T05:56:51.304Z,99029.00
2018-08-07T05:58:55.982Z,99025.00
2018-08-07T06:01:00.521Z,99025.00
2018-08-07T06:03:05.741Z,99024.00
2018-08-07T06:05:10.493Z,99023.00
2018-08-07T06:07:15.029Z,99025.00
2018-08-07T06:09:19.578Z,99030.00
2018-08-07T06:11:24.091Z,99029.00
2018-08-07T06:13:28.557Z,99033.00
2018-08-07T06:15:33.171Z,99024.00
2018-08-07T06:17:38.337Z,99029.00
2018-08-07T06:19:42.835Z,99026.00
2018-08-07T06:21:47.333Z,99023.00
2018-08-07T06:23:51.890Z,99019.00
2018-08-07T06:25:56.502Z,99031.00
2018-08-07T06:28:05.445Z,99022.00
2018-08-07T06:30:16.975Z,99021.00
2018-08-07T06:32:23.491Z,99022.00
2018-08-07T06:34:28.136Z,99022.00
2018-08-07T06:36:32.659Z,99015.00
2018-08-07T06:38:37.120Z,99007.00
2018-08-07T06:40:41.665Z,99014.00
2018-08-07T06:42:46.723Z,99015.00
2018-08-07T06:44:51.190Z,99015.00
2018-08-07T06:46:55.684Z,99006.00
2018-08-07T06:49:00.222Z,99007.00
2018-08-07T06:51:05.917Z,99007.00
2018-08-07T06:53:10.691Z,99002.00
2018-08-07T06:55:15.302Z,98998.00
2018-08-07T06:57:19.818Z,98997.00
2018-08-07T06:59:24.274Z,98988.00
2018-08-07T07:01:29.514Z,98985.00
2018-08-07T07:03:33.710Z,98982.00
2018-08-07T07:05:38.282Z,98996.00
2018-08-07T07:07:43.398Z,98990.00
2018-08-07T07:09:48.101Z,98976.00
2018-08-07T07:11:53.570Z,98988.00
2018-08-07T07:13:58.065Z,98985.00
2018-08-07T07:16:02.590Z,98983.00
2018-08-07T07:18:08.063Z,98980.00
2018-08-07T07:20:14.818Z,98975.00
2018-08-07T07:22:19.534Z,98974.00
2018-08-07T07:24:24.023Z,98976.00
2018-08-07T07:26:28.822Z,98972.00
2018-08-07T07:28:37.340Z,98965.00
2018-08-07T07:30:42.375Z,98971.00
2018-08-07T07:32:48.260Z,98972.00
2018-08-07T07:34:52.738Z,98962.00
2018-08-07T07:36:57.323Z,98967.00
2018-08-07T07:39:01.782Z,98960.00
2018-08-07T07:41:06.430Z,98964.00
2018-08-07T07:43:11.074Z,98962.00
2018-08-07T07:45:18.729Z,98958.00
2018-08-07T07:47:23.275Z,98961.00
2018-08-07T07:49:27.816Z,98959.00
2018-08-07T07:51:32.265Z,98959.00
2018-08-07T07:53:36.786Z,98954.00
2018-08-07T07:55:41.353Z,98957.00
2018-08-07T07:57:45.859Z,98955.00
2018-08-07T07:59:50.379Z,98960.00
2018-08-07T08:01:55.035Z,98950.00
2018-08-07T08:03:59.542Z,98957.00
2018-08-07T08:06:04.195Z,98960.00
2018-08-07T08:08:08.717Z,98956.00
2018-08-07T08:10:13.617Z,98957.00
2018-08-07T08:12:18.707Z,98944.00
2018-08-07T08:14:23.442Z,98949.00
2018-08-07T08:16:28.029Z,98943.00
2018-08-07T08:18:32.560Z,98946.00
2018-08-07T08:20:37.590Z,98940.00
2018-08-07T08:22:42.100Z,98939.00
2018-08-07T08:24:46.747Z,98950.00
2018-08-07T08:26:51.322Z,98947.00
2018-08-07T08:28:55.851Z,98943.00
2018-08-07T08:31:01.158Z,98945.00
2018-08-07T08:33:06.441Z,98943.00
2018-08-07T08:35:13.211Z,98948.00
2018-08-07T08:37:17.754Z,98939.00
2018-08-07T08:39:22.204Z,98935.00
2018-08-07T08:41:27.058Z,98932.00
2018-08-07T08:43:31.622Z,98938.00
2018-08-07T08:45:36.127Z,98932.00
2018-08-07T08:47:41.186Z,98939.00
2018-08-07T08:49:45.826Z,98933.00
2018-08-07T08:51:51.185Z,98928.00
2018-08-07T08:53:57.838Z,98933.00
2018-08-07T08:56:06.195Z,98932.00
2018-08-07T08:58:14.213Z,98926.00
2018-08-07T09:00:29.440Z,98934.00
2018-08-07T09:02:35.693Z,98934.00
2018-08-07T09:04:40.262Z,98935.00
2018-08-07T09:06:44.834Z,98934.00
2018-08-07T09:08:49.407Z,98927.00
2018-08-07T09:10:53.862Z,98927.00
2018-08-07T09:12:59.974Z,98933.00
2018-08-07T09:15:04.879Z,98931.00
2018-08-07T09:17:10.005Z,98925.00
2018-08-07T09:19:14.502Z,98931.00
2018-08-07T09:21:19.102Z,98924.00
2018-08-07T09:23:23.634Z,98934.00
2018-08-07T09:25:30.293Z,98925.00
2018-08-07T09:27:35.893Z,98927.00
2018-08-07T09:29:40.414Z,98925.00
2018-08-07T09:31:44.986Z,98926.00
2018-08-07T09:33:49.571Z,98922.00
2018-08-07T09:35:54.206Z,98925.00
2018-08-07T09:37:59.412Z,98914.00
2018-08-07T09:40:04.599Z,98913.00
2018-08-07T09:42:09.228Z,98921.00
2018-08-07T09:44:13.703Z,98916.00
2018-08-07T09:46:18.174Z,98908.00
2018-08-07T09:48:22.341Z,98912.00
2018-08-07T09:50:26.893Z,98913.00
2018-08-07T09:52:31.370Z,98918.00
2018-08-07T09:54:35.869Z,98907.00
2018-08-07T09:56:40.387Z,98912.00
2018-08-07T09:58:45.002Z,98920.00
2018-08-07T10:00:54.514Z,98905.00
2018-08-07T10:03:02.819Z,98909.00
2018-08-07T10:05:07.392Z,98901.00
2018-08-07T10:07:11.884Z,98898.00
2018-08-07T10:09:16.454Z,98892.00
2018-08-07T10:11:20.992Z,98887.00
2018-08-07T10:13:25.606Z,98889.00
2018-08-07T10:15:30.583Z,98888.00
2018-08-07T10:17:35.075Z,98893.00
2018-08-07T10:19:40.477Z,98885.00
2018-08-07T10:21:45.093Z,98883.00
2018-08-07T10:23:49.675Z,98887.00
2018-08-07T10:25:54.302Z,98881.00
2018-08-07T10:27:58.838Z,98887.00
2018-08-07T10:30:03.638Z,98900.00
2018-08-07T10:32:08.231Z,98891.00
2018-08-07T10:34:13.302Z,98883.00
2018-08-07T10:36:17.894Z,98878.00
2018-08-07T10:38:23.426Z,98875.00
2018-08-07T10:40:28.409Z,98874.00
2018-08-07T10:42:33.027Z,98868.00
2018-08-07T10:44:37.704Z,98863.00
2018-08-07T10:46:42.847Z,98864.00
2018-08-07T10:48:47.428Z,98862.00
2018-08-07T10:50:51.963Z,98853.00
2018-08-07T10:52:56.905Z,98857.00
2018-08-07T10:55:01.487Z,98871.00
2018-08-07T10:57:07.075Z,98861.00
2018-08-07T10:59:11.573Z,98862.00
2018-08-07T11:01:16.016Z,98862.00
2018-08-07T11:03:21.330Z,98854.00
2018-08-07T11:05:26.424Z,98840.00
2018-08-07T11:07:30.859Z,98850.00
2018-08-07T11:09:35.334Z,98841.00
2018-08-07T11:11:39.945Z,98846.00
2018-08-07T11:13:44.567Z,98842.00
2018-08-07T11:15:50.456Z,98842.00
2018-08-07T11:17:56.179Z,98838.00
2018-08-07T11:20:00.666Z,98841.00
2018-08-07T11:22:05.135Z,98840.00
2018-08-07T11:24:12.065Z,98835.00
2018-08-07T11:26:17.350Z,98839.00
2018-08-07T11:28:21.890Z,98843.00
2018-08-07T11:30:27.649Z,98808.00
2018-08-07T11:32:32.139Z,98828.00
2018-08-07T11:34:36.737Z,98832.00
2018-08-07T11:36:41.234Z,98832.00
2018-08-07T11:38:45.804Z,98816.00
2018-08-07T11:40:51.187Z,98820.00
2018-08-07T11:42:57.244Z,98807.00
2018-08-07T11:45:01.790Z,98809.00
2018-08-07T11:47:07.314Z,98816.00
2018-08-07T11:49:11.861Z,98812.00
2018-08-07T11:51:16.354Z,98819.00
2018-08-07T11:53:20.879Z,98808.00
2018-08-07T11:55:26.037Z,98816.00
2018-08-07T11:57:30.876Z,98815.00
2018-08-07T11:59:35.518Z,98801.00
2018-08-07T12:01:40.014Z,98812.00
2018-08-07T12:03:44.614Z,98821.00
2018-08-07T12:05:49.563Z,98798.00
2018-08-07T12:07:54.271Z,98797.00
2018-08-07T12:09:58.843Z,98805.00
2018-08-07T12:12:03.322Z,98812.00
2018-08-07T12:14:08.205Z,98808.00
2018-08-07T12:16:12.930Z,98805.00
2018-08-07T12:18:17.508Z,98805.00
2018-08-07T12:20:22.078Z,98818.00
2018-08-07T12:22:27.062Z,98810.00
2018-08-07T12:24:32.413Z,98806.00
2018-08-07T12:26:36.924Z,98799.00
2018-08-07T12:28:41.549Z,98814.00
2018-08-07T12:30:46.106Z,98819.00
2018-08-07T12:32:50.690Z,98810.00
2018-08-07T12:34:55.281Z,98791.00
2018-08-07T12:36:59.806Z,98794.00
2018-08-07T12:39:06.574Z,98783.00
2018-08-07T12:41:11.159Z,98791.00
2018-08-07T12:43:15.556Z,98781.00
2018-08-07T12:45:20.399Z,98782.00
2018-08-07T12:47:26.907Z,98797.00
2018-08-07T12:49:31.435Z,98780.00
2018-08-07T12:51:35.958Z,98781.00
2018-08-07T12:53:40.453Z,98782.00
2018-08-07T12:55:46.006Z,98785.00
2018-08-07T12:57:51.013Z,98775.00
2018-08-07T12:59:55.509Z,98774.00
2018-08-07T13:02:00.056Z,98769.00
2018-08-07T13:04:04.662Z,98772.00
2018-08-07T13:06:09.285Z,98781.00
2018-08-07T13:08:14.374Z,98781.00
2018-08-07T13:10:21.206Z,98781.00
2018-08-07T13:12:25.727Z,98765.00
2018-08-07T13:14:30.322Z,98767.00
2018-08-07T13:16:34.949Z,98762.00
2018-08-07T13:18:39.502Z,98762.00
2018-08-07T13:20:44.115Z,98750.00
2018-08-07T13:22:49.076Z,98752.00
2018-08-07T13:24:54.116Z,98746.00
2018-08-07T13:26:58.695Z,98748.00
2018-08-07T13:29:03.183Z,98758.00
2018-08-07T13:31:08.074Z,98744.00
2018-08-07T13:33:12.630Z,98735.00
2018-08-07T13:35:17.998Z,98732.00
2018-08-07T13:37:23.533Z,98731.00
2018-08-07T13:39:28.110Z,98729.00
2018-08-07T13:41:32.667Z,98729.00
2018-08-07T13:43:37.258Z,98731.00
2018-08-07T13:45:41.882Z,98722.00
2018-08-07T13:47:46.908Z,98713.00
2018-08-07T13:49:51.418Z,98711.00
2018-08-07T13:51:56.510Z,98703.00
2018-08-07T13:54:01.654Z,98715.00
2018-08-07T13:56:06.719Z,98725.00
2018-08-07T13:58:11.630Z,98718.00
2018-08-07T14:00:25.834Z,98720.00
2018-08-07T14:02:30.486Z,98728.00
2018-08-07T14:04:38.134Z,98721.00
2018-08-07T14:06:42.473Z,98719.00
2018-08-07T14:08:47.029Z,98707.00
2018-08-07T14:10:51.281Z,98714.00
2018-08-07T14:12:56.495Z,98703.00
2018-08-07T14:15:00.970Z,98704.00
2018-08-07T14:17:05.562Z,98702.00
2018-08-07T14:19:10.077Z,98707.00
2018-08-07T14:21:14.773Z,98712.00
2018-08-07T14:23:19.297Z,98710.00
2018-08-07T14:25:26.614Z,98695.00
2018-08-07T14:27:31.750Z,98702.00
2018-08-07T14:29:36.722Z,98706.00
2018-08-07T14:31:41.392Z,98712.00
2018-08-07T14:33:45.909Z,98708.00
2018-08-07T14:35:50.964Z,98703.00
2018-08-07T14:37:58.006Z,98703.00
2018-08-07T14:40:02.618Z,98696.00
2018-08-07T14:42:07.440Z,98689.00
2018-08-07T14:44:12.000Z,98694.00
2018-08-07T14:46:16.950Z,98694.00
2018-08-07T14:48:21.570Z,98692.00
2018-08-07T14:50:28.218Z,98702.00
2018-08-07T14:52:32.695Z,98709.00
2018-08-07T14:54:37.177Z,98702.00
2018-08-07T14:56:41.774Z,98703.00
2018-08-07T14:58:46.243Z,98709.00
2018-08-07T15:00:50.706Z,98707.00
2018-08-07T15:02:55.246Z,98707.00
2018-08-07T15:04:59.739Z,98693.00
2018-08-07T15:07:04.670Z,98700.00
2018-08-07T15:09:11.266Z,98698.00
2018-08-07T15:11:16.611Z,98692.00
2018-08-07T15:13:21.094Z,98698.00
2018-08-07T15:15:29.295Z,98695.00
2018-08-07T15:17:33.808Z,98697.00
2018-08-07T15:19:38.315Z,98697.00
2018-08-07T15:21:42.927Z,98692.00
2018-08-07T15:23:47.454Z,98694.00
2018-08-07T15:25:51.979Z,98690.00
2018-08-07T15:27:56.894Z,98687.00
2018-08-07T15:30:01.371Z,98688.00
2018-08-07T15:32:05.947Z,98688.00
2018-08-07T15:34:10.405Z,98682.00
2018-08-07T15:36:14.923Z,98697.00
2018-08-07T15:38:19.615Z,98693.00
2018-08-07T15:40:24.222Z,98684.00
2018-08-07T15:42:28.366Z,98688.00
2018-08-07T15:44:32.879Z,98682.00
2018-08-07T15:46:37.396Z,98680.00
2018-08-07T15:48:42.292Z,98685.00
2018-08-07T15:50:46.811Z,98686.00
2018-08-07T15:52:52.628Z,98681.00
2018-08-07T15:54:57.423Z,98683.00
2018-08-07T15:57:01.906Z,98676.00
2018-08-07T15:59:06.619Z,98678.00
2018-08-07T16:01:14.833Z,98683.00
2018-08-07T16:03:23.781Z,98682.00
2018-08-07T16:05:28.680Z,98685.00
2018-08-07T16:07:33.375Z,98685.00
2018-08-07T16:09:37.890Z,98687.00
2018-08-07T16:11:44.144Z,98693.00
2018-08-07T16:13:48.770Z,98679.00
2018-08-07T16:15:53.330Z,98684.00
2018-08-07T16:17:57.827Z,98685.00
2018-08-07T16:20:02.512Z,98682.00
2018-08-07T16:22:07.343Z,98688.00
2018-08-07T16:24:11.874Z,98681.00
2018-08-07T16:26:16.529Z,98682.00
2018-08-07T16:28:21.039Z,98686.00
2018-08-07T16:30:27.647Z,98692.00
2018-08-07T16:32:31.837Z,98685.00
2018-08-07T16:34:36.961Z,98681.00
2018-08-07T16:36:41.425Z,98688.00
2018-08-07T16:38:45.960Z,98682.00
2018-08-07T16:40:51.327Z,98691.00
2018-08-07T16:42:55.657Z,98681.00
2018-08-07T16:45:00.174Z,98680.00
2018-08-07T16:47:04.677Z,98684.00
2018-08-07T16:49:09.220Z,98694.00
2018-08-07T16:51:13.737Z,98681.00
2018-08-07T16:53:18.475Z,98679.00
2018-08-07T16:55:24.842Z,98682.00
2018-08-07T16:57:29.712Z,98681.00
2018-08-07T16:59:34.182Z,98679.00
2018-08-07T17:01:38.714Z,98682.00
2018-08-07T17:03:43.272Z,98678.00
2018-08-07T17:05:47.779Z,98680.00
2018-08-07T17:07:52.332Z,98687.00
2018-08-07T17:09:56.859Z,98681.00
2018-08-07T17:12:01.351Z,98684.00
2018-08-07T17:14:06.394Z,98677.00
2018-08-07T17:16:10.936Z,98687.00
2018-08-07T17:18:15.406Z,98685.00
2018-08-07T17:20:21.529Z,98679.00
2018-08-07T17:22:26.034Z,98687.00
2018-08-07T17:24:30.935Z,98690.00
2018-08-07T17:26:35.530Z,98685.00
2018-08-07T17:28:40.099Z,98689.00
2018-08-07T17:30:44.603Z,98696.00
2018-08-07T17:32:50.036Z,98695.00
2018-08-07T17:34:54.575Z,98688.00
2018-08-07T17:36:59.045Z,98695.00
2018-08-07T17:39:03.767Z,98700.00
2018-08-07T17:41:08.382Z,98705.00
2018-08-07T17:43:12.839Z,98697.00
2018-08-07T17:45:17.318Z,98701.00
2018-08-07T17:47:21.920Z,98696.00
2018-08-07T17:49:26.443Z,98697.00
2018-08-07T17:51:31.865Z,98700.00
2018-08-07T17:53:36.437Z,98706.00
2018-08-07T17:55:40.897Z,98710.00
2018-08-07T17:57:45.629Z,98707.00
2018-08-07T17:59:49.942Z,98712.00
2018-08-07T18:01:54.451Z,98717.00
2018-08-07T18:03:58.951Z,98714.00
2018-08-07T18:06:04.167Z,98710.00
2018-08-07T18:08:08.871Z,98711.00
2018-08-07T18:10:15.020Z,98715.00
2018-08-07T18:12:19.653Z,98711.00
2018-08-07T18:14:24.162Z,98721.00
2018-08-07T18:16:28.682Z,98728.00
2018-08-07T18:18:34.087Z,98725.00
2018-08-07T18:20:38.555Z,98726.00
2018-08-07T18:22:43.469Z,98728.00
2018-08-07T18:24:48.081Z,98727.00
2018-08-07T18:26:52.567Z,98732.00
2018-08-07T18:28:57.068Z,98737.00
2018-08-07T18:31:01.530Z,98733.00
2018-08-07T18:33:06.022Z,98746.00
2018-08-07T18:35:21.104Z,98742.00
2018-08-07T18:37:25.562Z,98749.00
2018-08-07T18:39:30.445Z,98749.00
2018-08-07T18:41:34.923Z,98744.00
2018-08-07T18:43:39.461Z,98746.00
2018-08-07T18:45:43.979Z,98750.00
2018-08-07T18:47:49.174Z,98746.00
2018-08-07T18:49:53.687Z,98747.00
2018-08-07T18:51:58.240Z,98747.00
2018-08-07T18:54:03.326Z,98749.00
2018-08-07T18:56:08.017Z,98753.00
2018-08-07T18:58:12.478Z,98748.00
2018-08-07T19:00:18.704Z,98755.00
2018-08-07T19:02:23.238Z,98749.00
2018-08-07T19:04:28.054Z,98753.00
2018-08-07T19:06:32.931Z,98759.00
2018-08-07T19:08:37.415Z,98751.00
2018-08-07T19:10:42.425Z,98751.00
2018-08-07T19:12:47.866Z,98764.00
2018-08-07T19:14:54.672Z,98769.00
2018-08-07T19:16:59.222Z,98771.00
2018-08-07T19:19:06.551Z,98770.00
2018-08-07T19:21:12.466Z,98772.00
2018-08-07T19:23:18.715Z,98768.00
2018-08-07T19:25:23.687Z,98774.00
2018-08-07T19:27:28.856Z,98772.00
2018-08-07T19:29:34.390Z,98762.00
2018-08-07T19:31:40.486Z,98760.00
2018-08-07T19:33:46.718Z,98762.00
2018-08-07T19:35:52.875Z,98764.00
2018-08-07T19:37:58.468Z,98758.00
2018-08-07T19:40:03.819Z,98755.00
2018-08-07T19:42:09.871Z,98748.00
2018-08-07T19:44:14.806Z,98748.00
2018-08-07T19:46:20.194Z,98756.00
2018-08-07T19:48:25.083Z,98763.00
2018-08-07T19:50:29.712Z,98761.00
2018-08-07T19:52:34.011Z,98756.00
2018-08-07T19:54:38.623Z,98768.00
2018-08-07T19:56:43.596Z,98772.00
2018-08-07T19:58:48.168Z,98787.00
2018-08-07T20:00:52.446Z,98794.00
2018-08-07T20:02:58.294Z,98805.00
2018-08-07T20:05:02.556Z,98814.00
2018-08-07T20:07:07.079Z,98824.00
2018-08-07T20:09:12.828Z,98838.00
2018-08-07T20:11:17.358Z,98832.00
2018-08-07T20:13:21.857Z,98839.00
2018-08-07T20:15:28.045Z,98833.00
2018-08-07T20:17:32.945Z,98831.00
2018-08-07T20:19:37.353Z,98826.00
2018-08-07T20:21:41.908Z,98825.00
2018-08-07T20:23:46.446Z,98824.00
2018-08-07T20:25:50.955Z,98825.00
2018-08-07T20:27:58.357Z,98821.00
2018-08-07T20:30:06.198Z,98825.00
2018-08-07T20:32:14.094Z,98821.00
2018-08-07T20:34:21.439Z,98816.00
2018-08-07T20:36:26.099Z,98820.00
2018-08-07T20:38:30.624Z,98821.00
2018-08-07T20:40:35.286Z,98815.00
2018-08-07T20:42:40.693Z,98819.00
2018-08-07T20:44:45.263Z,98816.00
2018-08-07T20:46:49.839Z,98815.00
2018-08-07T20:48:54.414Z,98820.00
2018-08-07T20:50:59.285Z,98822.00
2018-08-07T20:53:03.873Z,98814.00
2018-08-07T20:55:08.382Z,98823.00
2018-08-07T20:57:13.306Z,98823.00
2018-08-07T20:59:17.806Z,98822.00
2018-08-07T21:01:23.232Z,98821.00
2018-08-07T21:03:27.300Z,98830.00
2018-08-07T21:05:31.926Z,98824.00
2018-08-07T21:07:37.882Z,98816.00
2018-08-07T21:09:42.373Z,98822.00
2018-08-07T21:11:47.402Z,98818.00
2018-08-07T21:13:51.886Z,98818.00
2018-08-07T21:15:56.476Z,98805.00
2018-08-07T21:18:00.965Z,98805.00
2018-08-07T21:20:07.659Z,98803.00
2018-08-07T21:22:15.543Z,98801.00
2018-08-07T21:24:20.088Z,98808.00
2018-08-07T21:26:25.734Z,98795.00
2018-08-07T21:28:30.331Z,98799.00
2018-08-07T21:30:34.967Z,98800.00
2018-08-07T21:32:39.563Z,98793.00
2018-08-07T21:34:44.298Z,98791.00
2018-08-07T21:36:49.422Z,98792.00
2018-08-07T21:38:53.855Z,98797.00
2018-08-07T21:40:58.338Z,98794.00
2018-08-07T21:43:02.840Z,98784.00
2018-08-07T21:45:08.476Z,98773.00
2018-08-07T21:47:13.591Z,98767.00
2018-08-07T21:49:18.086Z,98770.00
2018-08-07T21:51:22.557Z,98778.00
2018-08-07T21:53:29.074Z,98763.00
2018-08-07T21:55:33.854Z,98766.00
2018-08-07T21:57:38.482Z,98761.00
2018-08-07T21:59:43.051Z,98757.00
2018-08-07T22:01:47.632Z,98747.00
2018-08-07T22:03:52.102Z,98743.00
2018-08-07T22:05:56.876Z,98743.00
2018-08-07T22:08:01.403Z,98732.00
2018-08-07T22:10:12.647Z,98727.00
2018-08-07T22:12:17.183Z,98727.00
2018-08-07T22:14:21.714Z,98720.00
2018-08-07T22:16:26.246Z,98721.00
2018-08-07T22:18:30.874Z,98722.00
2018-08-07T22:20:35.394Z,98721.00
2018-08-07T22:22:40.050Z,98726.00
2018-08-07T22:24:44.638Z,98716.00
2018-08-07T22:26:49.213Z,98714.00
2018-08-07T22:28:54.039Z,98712.00
2018-08-07T22:30:58.510Z,98699.00
2018-08-07T22:33:03.016Z,98693.00
2018-08-07T22:35:08.826Z,98690.00
2018-08-07T22:37:14.238Z,98683.00
2018-08-07T22:39:20.599Z,98689.00
2018-08-07T22:41:25.085Z,98688.00
2018-08-07T22:43:29.525Z,98683.00
2018-08-07T22:45:34.189Z,98674.00
2018-08-07T22:47:38.985Z,98667.00
2018-08-07T22:49:43.405Z,98666.00
2018-08-07T22:51:47.927Z,98666.00
2018-08-07T22:53:52.422Z,98671.00
2018-08-07T22:55:56.860Z,98665.00
2018-08-07T22:58:01.386Z,98658.00
2018-08-07T23:00:10.698Z,98656.00
2018-08-07T23:02:15.162Z,98659.00
2018-08-07T23:04:19.625Z,98648.00
2018-08-07T23:06:24.126Z,98642.00
2018-08-07T23:08:29.394Z,98644.00
2018-08-07T23:10:34.352Z,98629.00
2018-08-07T23:12:38.831Z,98631.00
2018-08-07T23:14:43.330Z,98625.00
2018-08-07T23:16:47.821Z,98623.00
2018-08-07T23:18:52.361Z,98617.00
2018-08-07T23:20:56.962Z,98615.00
2018-08-07T23:23:01.507Z,98614.00
2018-08-07T23:25:06.794Z,98610.00
2018-08-07T23:27:11.958Z,98612.00
2018-08-07T23:29:16.430Z,98600.00
2018-08-07T23:31:20.849Z,98602.00
2018-08-07T23:33:25.930Z,98604.00
2018-08-07T23:35:30.387Z,98601.00
2018-08-07T23:37:35.057Z,98607.00
2018-08-07T23:39:39.606Z,98603.00
2018-08-07T23:41:45.733Z,98603.00
2018-08-07T23:43:53.374Z,98598.00
2018-08-07T23:46:03.122Z,98603.00
2018-08-07T23:48:08.438Z,98601.00
2018-08-07T23:50:13.662Z,98602.00
2018-08-07T23:52:18.174Z,98602.00
2018-08-07T23:54:22.705Z,98602.00
2018-08-07T23:56:27.202Z,98604.00
2018-08-07T23:58:31.764Z,98608.00
